Time;durP1;ratioP1;P1;durP2;ratioP2;P2;SDS_P1;SDS_P2;PMS_P1;PMS_P2;Temp;Humidity;BMP_temperature;BMP_pressure;BME280_temperature;BME280_humidity;BME280_pressure;Samples;Min_cycle;Max_cycle;Signal;HPM_P1;HPM_P2
2023/11/23 00:01:57;;;;;;;;;;;;;;;17.45;44.67;100473.13;10328373;28;892;-70
2023/11/23 00:06:53;;;;;;;;;;;;;;;17.42;45.36;100452.16;10329792;28;956;-70
2023/11/23 00:11:49;;;;;;;;;;;;;;;17.41;45.62;100446.91;10328533;28;806;-70
2023/11/23 00:16:45;;;;;;;;;;;;;;;17.40;45.17;100448.69;10328350;28;1902;-70
2023/11/23 00:21:41;;;;;;;;;;;;;;;17.39;45.50;100454.00;10328712;28;886;-71
2023/11/23 00:26:37;;;;;;;;;;;;;;;17.36;45.53;100446.19;10328466;28;879;-70
2023/11/23 00:31:33;;;;;;;;;;;;;;;17.37;45.25;100435.63;10327577;28;867;-71
2023/11/23 00:36:30;;;;;;;;;;;;;;;17.34;45.60;100430.41;10327706;28;1973;-71
2023/11/23 00:41:26;;;;;;;;;;;;;;;17.33;45.95;100426.06;10327233;28;895;-71
2023/11/23 00:46:21;;;;;;;;;;;;;;;17.31;45.83;100422.59;10326948;28;850;-71
2023/11/23 00:51:18;;;;;;;;;;;;;;;17.30;45.71;100418.25;10326945;28;767;-70
2023/11/23 00:56:15;;;;;;;;;;;;;;;17.30;45.71;100416.47;10326719;28;1897;-70
2023/11/23 01:01:11;;;;;;;;;;;;;;;17.31;45.89;100418.19;10327164;28;849;-70
2023/11/23 01:06:06;;;;;;;;;;;;;;;17.29;45.96;100420.03;10325835;28;955;-70
2023/11/23 01:11:02;;;;;;;;;;;;;;;17.26;45.82;100409.56;10325623;28;1023;-70
2023/11/23 01:15:58;;;;;;;;;;;;;;;17.27;46.20;100411.31;10325941;28;1955;-70
2023/11/23 01:20:54;;;;;;;;;;;;;;;17.27;46.25;100398.13;10325980;28;921;-70
2023/11/23 01:25:50;;;;;;;;;;;;;;;17.27;46.31;100394.66;10325364;28;806;-70
2023/11/23 01:30:46;;;;;;;;;;;;;;;17.24;46.28;100395.59;10325805;28;762;-70
2023/11/23 01:35:42;;;;;;;;;;;;;;;17.22;46.08;100392.16;10325251;28;1905;-70
2023/11/23 01:40:38;;;;;;;;;;;;;;;17.23;46.40;100393.00;10325453;28;818;-70
2023/11/23 01:45:33;;;;;;;;;;;;;;;17.22;46.20;100399.19;10325715;28;790;-70
2023/11/23 01:50:29;;;;;;;;;;;;;;;17.20;46.44;100399.22;10325624;28;887;-71
2023/11/23 01:55:25;;;;;;;;;;;;;;;17.21;46.45;100403.59;10325272;28;1965;-71
2023/11/23 02:00:24;;;;;;;;;;;;;;;17.21;46.45;100411.50;10325772;28;986;-71
2023/11/23 02:05:20;;;;;;;;;;;;;;;17.24;46.34;100400.88;10325817;28;1005;-71
2023/11/23 02:10:16;;;;;;;;;;;;;;;17.26;46.33;100408.72;10324925;28;786;-71
2023/11/23 02:15:12;;;;;;;;;;;;;;;17.20;46.52;100404.50;10324728;28;1894;-71
2023/11/23 02:20:08;;;;;;;;;;;;;;;17.18;46.68;100397.53;10325375;28;784;-71
2023/11/23 02:25:06;;;;;;;;;;;;;;;17.17;46.72;100401.97;10325207;28;818;-70
2023/11/23 02:30:03;;;;;;;;;;;;;;;17.18;46.71;100400.19;10326275;28;851;-71
2023/11/23 02:34:58;;;;;;;;;;;;;;;17.15;46.80;100390.59;10324977;28;1914;-71
2023/11/23 02:39:54;;;;;;;;;;;;;;;17.13;46.86;100384.50;10324177;28;781;-71
2023/11/23 02:44:50;;;;;;;;;;;;;;;17.14;47.02;100388.03;10324838;28;835;-71
2023/11/23 02:49:46;;;;;;;;;;;;;;;17.15;46.79;100379.22;10324190;28;1008;-70
2023/11/23 02:54:42;;;;;;;;;;;;;;;17.15;46.76;100376.56;10327614;28;1967;-70
2023/11/23 02:59:38;;;;;;;;;;;;;;;17.14;46.55;100373.09;10331312;28;928;-70
2023/11/23 03:04:34;;;;;;;;;;;;;;;17.14;46.71;100370.44;10331738;28;874;-70
2023/11/23 03:09:30;;;;;;;;;;;;;;;17.15;46.67;100361.63;10330987;28;847;-70
2023/11/23 03:14:25;;;;;;;;;;;;;;;17.17;46.49;100364.22;10330689;28;1964;-71
2023/11/23 03:19:21;;;;;;;;;;;;;;;17.13;46.65;100363.44;10331319;28;861;-70
2023/11/23 03:24:17;;;;;;;;;;;;;;;17.13;46.85;100365.22;10331243;28;940;-70
2023/11/23 03:29:13;;;;;;;;;;;;;;;17.13;46.88;100355.53;10331099;28;933;-71
2023/11/23 03:34:09;;;;;;;;;;;;;;;17.12;46.69;100353.81;10329924;28;1984;-70
2023/11/23 03:39:06;;;;;;;;;;;;;;;17.13;46.83;100339.72;10329856;28;901;-71
2023/11/23 03:44:02;;;;;;;;;;;;;;;17.13;46.90;100334.47;10329509;28;787;-71
2023/11/23 03:48:58;;;;;;;;;;;;;;;17.13;46.82;100313.38;10329443;28;778;-71
2023/11/23 03:53:54;;;;;;;;;;;;;;;17.14;46.69;100314.28;10329190;28;1898;-70
2023/11/23 03:58:50;;;;;;;;;;;;;;;17.15;46.73;100316.84;10329955;28;931;-70
2023/11/23 04:03:46;;;;;;;;;;;;;;;17.14;46.91;100314.28;10328764;28;985;-70
2023/11/23 04:08:42;;;;;;;;;;;;;;;17.13;46.90;100308.13;10328570;28;928;-70
2023/11/23 04:13:38;;;;;;;;;;;;;;;17.13;46.72;100309.91;10329122;28;889;-71
2023/11/23 04:18:34;;;;;;;;;;;;;;;17.11;46.57;100302.06;10328386;28;1894;-71
2023/11/23 04:23:30;;;;;;;;;;;;;;;17.11;46.77;100294.16;10328139;28;890;-71
2023/11/23 04:28:25;;;;;;;;;;;;;;;17.12;46.92;100295.00;10328520;28;830;-70
2023/11/23 04:33:24;;;;;;;;;;;;;;;17.12;46.72;100295.00;10327534;28;1425;-71
2023/11/23 04:38:20;;;;;;;;;;;;;;;17.11;46.73;100282.72;10327483;28;1879;-71
2023/11/23 04:43:16;;;;;;;;;;;;;;;17.14;46.61;100301.09;10327909;28;869;-71
2023/11/23 04:48:12;;;;;;;;;;;;;;;17.16;46.69;100308.06;10326951;28;946;-71
2023/11/23 04:53:08;;;;;;;;;;;;;;;17.18;46.53;100306.19;10326850;28;883;-70
2023/11/23 04:58:04;;;;;;;;;;;;;;;17.20;46.50;100296.47;10326131;28;1957;-71
2023/11/23 05:03:00;;;;;;;;;;;;;;;17.23;46.48;100299.00;10325954;28;877;-71
2023/11/23 05:07:55;;;;;;;;;;;;;;;17.25;46.43;100307.75;10326334;28;795;-71
2023/11/23 05:12:52;;;;;;;;;;;;;;;17.25;46.46;100310.38;10326884;28;857;-71
2023/11/23 05:17:47;;;;;;;;;;;;;;;17.29;46.66;100309.38;10325467;28;1889;-71
2023/11/23 05:22:45;;;;;;;;;;;;;;;17.32;46.43;100313.69;10326613;28;940;-70
2023/11/23 05:27:41;;;;;;;;;;;;;;;17.34;46.57;100295.16;10326414;28;895;-71
2023/11/23 05:32:37;;;;;;;;;;;;;;;17.34;46.52;100298.66;10326016;28;1143;-70
2023/11/23 05:37:33;;;;;;;;;;;;;;;17.35;46.58;100289.00;10325534;28;1918;-70
2023/11/23 05:42:30;;;;;;;;;;;;;;;17.36;46.55;100288.09;10325588;28;1104;-70
2023/11/23 05:47:26;;;;;;;;;;;;;;;17.38;46.50;100296.81;10325365;28;804;-70
2023/11/23 05:52:22;;;;;;;;;;;;;;;17.38;46.50;100286.28;10325357;28;790;-71
2023/11/23 05:57:18;;;;;;;;;;;;;;;17.36;46.54;100291.56;10325814;28;1914;-71
2023/11/23 06:02:13;;;;;;;;;;;;;;;17.39;46.62;100283.56;10325212;28;863;-71
2023/11/23 06:07:10;;;;;;;;;;;;;;;17.38;46.56;100267.81;10325090;28;787;-71
2023/11/23 06:12:06;;;;;;;;;;;;;;;17.38;46.59;100270.47;10325457;28;974;-71
2023/11/23 06:17:03;;;;;;;;;;;;;;;17.40;46.38;100268.63;10324647;28;1901;-71
2023/11/23 06:21:59;;;;;;;;;;;;;;;17.38;46.50;100262.56;10324774;28;896;-70
2023/11/23 06:26:55;;;;;;;;;;;;;;;17.38;46.53;100260.78;10325969;28;873;-71
2023/11/23 06:31:51;;;;;;;;;;;;;;;17.42;46.50;100245.72;10333108;28;997;-71
2023/11/23 06:36:49;;;;;;;;;;;;;;;17.48;46.41;100234.97;10332196;28;1967;-70
2023/11/23 06:41:46;;;;;;;;;;;;;;;17.50;46.67;100248.94;10332047;28;842;-73
2023/11/23 06:46:41;;;;;;;;;;;;;;;17.50;46.50;100249.84;10332157;28;806;-72
2023/11/23 06:51:38;;;;;;;;;;;;;;;17.51;46.56;100250.69;10331662;28;906;-72
2023/11/23 06:56:34;;;;;;;;;;;;;;;17.51;46.85;100248.03;10332122;28;1917;-73
2023/11/23 07:01:30;;;;;;;;;;;;;;;17.55;46.88;100247.00;10330671;28;897;-72
2023/11/23 07:06:26;;;;;;;;;;;;;;;17.56;46.82;100232.94;10331088;28;853;-75
2023/11/23 07:11:22;;;;;;;;;;;;;;;17.51;46.80;100227.81;10331259;28;871;-71
2023/11/23 07:16:18;;;;;;;;;;;;;;;17.43;47.08;100237.78;10331277;28;1973;-71
2023/11/23 07:21:15;;;;;;;;;;;;;;;17.39;47.03;100238.78;10331785;28;1652;-71
2023/11/23 07:26:11;;;;;;;;;;;;;;;17.38;47.12;100228.31;10331170;28;882;-71
2023/11/23 07:31:09;;;;;;;;;;;;;;;17.30;47.45;100218.88;10330874;28;862;-71
2023/11/23 07:36:05;;;;;;;;;;;;;;;17.29;47.61;100206.63;10329934;28;1918;-71
2023/11/23 07:41:05;;;;;;;;;;;;;;;17.31;47.71;100207.41;10329262;28;869;-71
2023/11/23 07:46:00;;;;;;;;;;;;;;;17.35;47.58;100209.97;10329722;28;918;-71
2023/11/23 07:50:56;;;;;;;;;;;;;;;17.37;47.59;100206.38;10330116;28;775;-74
2023/11/23 07:55:54;;;;;;;;;;;;;;;17.36;47.66;100196.72;10329877;28;1951;-72
2023/11/23 08:00:50;;;;;;;;;;;;;;;17.38;47.50;100196.69;10329656;28;985;-71
2023/11/23 08:05:47;;;;;;;;;;;;;;;17.39;47.45;100185.22;10328897;28;873;-71
2023/11/23 08:10:43;;;;;;;;;;;;;;;17.42;47.36;100187.75;10328759;28;759;-71
2023/11/23 08:15:40;;;;;;;;;;;;;;;17.48;47.63;100187.53;10328368;28;1890;-71
2023/11/23 08:20:37;;;;;;;;;;;;;;;17.46;47.87;100178.81;10328882;28;830;-72
2023/11/23 08:25:33;;;;;;;;;;;;;;;17.49;47.78;100170.81;10327924;28;1244;-73
2023/11/23 08:30:29;;;;;;;;;;;;;;;17.48;47.87;100177.84;10325922;28;1179;-71
2023/11/23 08:35:25;;;;;;;;;;;;;;;17.48;47.79;100167.31;10328122;28;1983;-71
2023/11/23 08:40:21;;;;;;;;;;;;;;;17.52;47.72;100183.88;10327815;28;937;-71
2023/11/23 08:45:17;;;;;;;;;;;;;;;17.52;47.79;100178.59;10327316;28;782;-71
2023/11/23 08:50:13;;;;;;;;;;;;;;;17.52;47.70;100182.09;10327093;28;937;-71
2023/11/23 08:55:09;;;;;;;;;;;;;;;17.53;47.68;100182.97;10326261;28;1893;-71
2023/11/23 09:00:10;;;;;;;;;;;;;;;17.57;47.90;100174.03;10326094;28;778;-71
2023/11/23 09:05:06;;;;;;;;;;;;;;;17.52;47.83;100163.63;10326425;28;813;-71
2023/11/23 09:10:02;;;;;;;;;;;;;;;17.55;47.90;100161.81;10325755;28;763;-71
2023/11/23 09:14:58;;;;;;;;;;;;;;;17.56;47.74;100177.59;10326035;28;1898;-72
2023/11/23 09:19:54;;;;;;;;;;;;;;;17.56;48.01;100169.69;10324857;28;1000;-71
2023/11/23 09:24:50;;;;;;;;;;;;;;;17.58;48.00;100174.88;10325832;28;789;-71
2023/11/23 09:29:46;;;;;;;;;;;;;;;17.59;47.75;100174.84;10325298;28;918;-71
2023/11/23 09:34:42;;;;;;;;;;;;;;;17.50;47.98;100160.22;10325237;28;1972;-69
2023/11/23 09:39:38;;;;;;;;;;;;;;;17.44;48.22;100146.38;10325730;28;834;-69
2023/11/23 09:44:34;;;;;;;;;;;;;;;17.44;48.12;100136.69;10325416;28;778;-70
2023/11/23 09:49:30;;;;;;;;;;;;;;;17.45;47.98;100134.94;10326101;28;913;-69
2023/11/23 09:54:28;;;;;;;;;;;;;;;17.40;48.00;100137.75;10325173;28;1970;-71
2023/11/23 09:59:24;;;;;;;;;;;;;;;17.51;47.82;100145.25;10325195;28;981;-72
2023/11/23 10:04:19;;;;;;;;;;;;;;;17.51;48.03;100135.56;10329971;28;842;-71
2023/11/23 10:09:15;;;;;;;;;;;;;;;17.53;48.16;100127.63;10333483;28;932;-72
2023/11/23 10:14:11;;;;;;;;;;;;;;;17.54;47.98;100131.97;10333866;28;1886;-71
2023/11/23 10:19:08;;;;;;;;;;;;;;;17.54;48.12;100116.16;10333038;28;946;-71
2023/11/23 10:24:07;;;;;;;;;;;;;;;17.54;48.09;100092.44;10332369;28;789;-71
2023/11/23 10:29:03;;;;;;;;;;;;;;;17.55;48.08;100093.28;10333310;28;794;-70
2023/11/23 10:34:00;;;;;;;;;;;;;;;17.49;48.19;100081.19;10332758;28;1905;-69
2023/11/23 10:38:56;;;;;;;;;;;;;;;17.43;48.30;100069.13;10332828;28;856;-69
2023/11/23 10:43:52;;;;;;;;;;;;;;;17.46;48.32;100055.81;10332160;28;755;-71
2023/11/23 10:48:48;;;;;;;;;;;;;;;17.50;48.15;100067.09;10332481;28;927;-71
2023/11/23 10:53:45;;;;;;;;;;;;;;;17.50;48.06;100051.28;10331048;28;957;-71
2023/11/23 10:58:41;;;;;;;;;;;;;;;17.56;47.75;100043.16;10331454;28;1897;-71
2023/11/23 11:03:37;;;;;;;;;;;;;;;17.53;47.89;100017.78;10331370;28;929;-70
2023/11/23 11:08:33;;;;;;;;;;;;;;;17.52;47.91;100005.50;10331852;28;862;-70
2023/11/23 11:13:29;;;;;;;;;;;;;;;17.53;47.98;100027.47;10330396;28;997;-70
2023/11/23 11:18:25;;;;;;;;;;;;;;;17.57;47.82;100026.41;10330160;28;1961;-70
2023/11/23 11:23:20;;;;;;;;;;;;;;;17.56;47.92;100043.16;10330622;28;897;-70
2023/11/23 11:28:16;;;;;;;;;;;;;;;17.57;48.00;100029.06;10330700;28;1019;-70
2023/11/23 11:33:14;;;;;;;;;;;;;;;17.54;48.17;99987.00;10330584;28;1255;-70
2023/11/23 11:38:10;;;;;;;;;;;;;;;17.53;47.96;99986.16;10330850;28;1967;-71
2023/11/23 11:43:05;;;;;;;;;;;;;;;17.58;48.13;99980.72;10329872;28;821;-70
2023/11/23 11:48:02;;;;;;;;;;;;;;;17.58;47.81;99972.81;10329121;28;905;-70
2023/11/23 11:52:58;;;;;;;;;;;;;;;17.55;47.94;99953.59;10329503;28;863;-70
2023/11/23 11:57:53;;;;;;;;;;;;;;;17.60;47.94;99941.09;10329220;28;1948;-70
2023/11/23 12:02:49;;;;;;;;;;;;;;;17.61;47.81;99940.19;10329125;28;854;-71
2023/11/23 12:07:45;;;;;;;;;;;;;;;17.59;47.89;99942.03;10328378;28;921;-70
2023/11/23 12:12:41;;;;;;;;;;;;;;;17.58;47.90;99929.75;10328186;28;1004;-70
2023/11/23 12:17:37;;;;;;;;;;;;;;;17.60;48.02;99914.75;10328313;28;1897;-71
2023/11/23 12:22:34;;;;;;;;;;;;;;;17.56;48.00;99900.84;10328194;28;828;-67
2023/11/23 12:27:30;;;;;;;;;;;;;;;17.49;48.19;99896.72;10328426;28;830;-67
2023/11/23 12:32:27;;;;;;;;;;;;;;;17.49;48.27;99889.66;10327721;28;1183;-68
2023/11/23 12:37:23;;;;;;;;;;;;;;;17.49;48.32;99894.09;10328311;28;1987;-67
2023/11/23 12:42:20;;;;;;;;;;;;;;;17.50;48.39;99894.03;10327468;28;993;-71
2023/11/23 12:47:16;;;;;;;;;;;;;;;17.60;48.01;99875.22;10327287;28;898;-71
2023/11/23 12:52:12;;;;;;;;;;;;;;;17.62;47.89;99850.50;10327711;28;778;-71
2023/11/23 12:57:09;;;;;;;;;;;;;;;17.58;48.14;99851.56;10310298;28;1905;-71
2023/11/23 13:02:05;;;;;;;;;;;;;;;17.61;48.05;99842.69;10326683;28;887;-71
2023/11/23 13:07:02;;;;;;;;;;;;;;;17.62;48.27;99842.59;10327151;28;806;-71
2023/11/23 13:11:58;;;;;;;;;;;;;;;17.63;48.20;99830.25;10323005;28;1161;-71
2023/11/23 13:16:54;;;;;;;;;;;;;;;17.64;48.18;99809.13;10325872;28;1902;-71
2023/11/23 13:21:50;;;;;;;;;;;;;;;17.64;48.32;99801.22;10325480;28;809;-71
2023/11/23 13:26:46;;;;;;;;;;;;;;;17.63;48.11;99793.38;10325177;28;905;-71
2023/11/23 13:31:43;;;;;;;;;;;;;;;17.65;48.09;99770.44;10325087;28;910;-71
2023/11/23 13:36:39;;;;;;;;;;;;;;;17.61;48.28;99761.81;10325661;28;1918;-71
2023/11/23 13:41:35;;;;;;;;;;;;;;;17.64;48.32;99759.06;10324196;28;778;-72
2023/11/23 13:46:32;;;;;;;;;;;;;;;17.60;48.23;99752.19;10326700;28;866;-71
2023/11/23 13:51:28;;;;;;;;;;;;;;;17.63;48.34;99749.44;10324334;28;1169;-71
2023/11/23 13:56:24;;;;;;;;;;;;;;;17.49;48.67;99746.50;10324782;28;1965;-72
2023/11/23 14:01:20;;;;;;;;;;;;;;;17.35;49.01;99744.47;10325506;28;854;-71
2023/11/23 14:06:16;;;;;;;;;;;;;;;17.33;49.01;99737.53;10325273;28;822;-71
2023/11/23 14:11:12;;;;;;;;;;;;;;;17.29;49.03;99742.94;10324696;28;902;-72
2023/11/23 14:16:09;;;;;;;;;;;;;;;17.34;49.02;99729.56;10324690;28;1905;-71
2023/11/23 14:21:06;;;;;;;;;;;;;;;17.52;48.47;99733.19;10324071;28;862;-71
2023/11/23 14:26:02;;;;;;;;;;;;;;;17.57;48.27;99723.31;10324270;28;848;-70
2023/11/23 14:30:58;;;;;;;;;;;;;;;17.57;48.37;99720.69;10323872;28;761;-70
2023/11/23 14:35:56;;;;;;;;;;;;;;;17.53;48.58;99721.75;10323928;28;1979;-70
2023/11/23 14:40:53;;;;;;;;;;;;;;;17.52;48.60;99718.25;10323875;28;848;-71
2023/11/23 14:45:49;;;;;;;;;;;;;;;17.48;48.59;99706.13;10324073;28;903;-71
2023/11/23 14:50:45;;;;;;;;;;;;;;;17.42;48.92;99694.97;10329066;28;847;-72
2023/11/23 14:55:41;;;;;;;;;;;;;;;17.42;48.71;99713.44;10331795;28;1961;-71
2023/11/23 15:00:38;;;;;;;;;;;;;;;17.38;48.82;99696.91;10331328;28;929;-70
2023/11/23 15:05:34;;;;;;;;;;;;;;;17.42;49.24;99684.44;10331592;28;1600;-74
2023/11/23 15:10:31;;;;;;;;;;;;;;;17.43;49.21;99680.91;10330282;28;1131;-71
2023/11/23 15:15:26;;;;;;;;;;;;;;;17.46;49.56;99673.72;10331246;28;1909;-70
2023/11/23 15:20:22;;;;;;;;;;;;;;;17.47;50.19;99664.03;10330532;28;811;-73
2023/11/23 15:25:18;;;;;;;;;;;;;;;17.46;51.10;99654.41;10330556;28;763;-71
2023/11/23 15:30:14;;;;;;;;;;;;;;;17.43;51.01;99646.66;10330279;28;865;-70
2023/11/23 15:35:14;;;;;;;;;;;;;;;17.42;50.54;99642.28;10330179;28;1988;-70
2023/11/23 15:40:10;;;;;;;;;;;;;;;17.39;50.59;99645.91;10329768;28;902;-71
2023/11/23 15:45:06;;;;;;;;;;;;;;;17.40;50.72;99660.81;10327892;28;1168;-71
2023/11/23 15:50:07;;;;;;;;;;;;;;;17.41;50.97;99664.31;10329198;28;868;-71
2023/11/23 15:55:08;;;;;;;;;;;;;;;17.43;50.83;99657.19;10329963;28;1963;-71
2023/11/23 16:00:06;;;;;;;;;;;;;;;17.44;50.95;99640.44;10328612;28;1559;-71
2023/11/23 16:05:02;;;;;;;;;;;;;;;17.44;50.71;99627.28;10329430;28;909;-71
2023/11/23 16:09:58;;;;;;;;;;;;;;;17.47;50.59;99632.41;10328668;28;778;-70
2023/11/23 16:14:54;;;;;;;;;;;;;;;17.47;50.47;99617.44;10328951;28;1964;-70
2023/11/23 16:19:50;;;;;;;;;;;;;;;17.46;50.41;99617.53;10329676;28;896;-70
2023/11/23 16:24:46;;;;;;;;;;;;;;;17.50;50.47;99606.78;10328074;28;877;-71
2023/11/23 16:29:42;;;;;;;;;;;;;;;17.53;50.36;99595.25;10328398;28;823;-72
2023/11/23 16:34:38;;;;;;;;;;;;;;;17.55;50.32;99605.72;10327295;28;1971;-71
2023/11/23 16:39:34;;;;;;;;;;;;;;;17.62;50.21;99605.38;10327956;28;790;-71
2023/11/23 16:44:30;;;;;;;;;;;;;;;17.61;50.43;99600.19;10327178;28;898;-71
2023/11/23 16:49:26;;;;;;;;;;;;;;;17.60;50.23;99591.41;10327488;28;778;-71
2023/11/23 16:54:22;;;;;;;;;;;;;;;17.65;50.31;99591.22;10326780;28;1973;-71
2023/11/23 16:59:18;;;;;;;;;;;;;;;17.65;50.24;99588.56;10326644;28;882;-70
2023/11/23 17:04:17;;;;;;;;;;;;;;;17.66;50.29;99585.88;10327002;28;810;-71
2023/11/23 17:09:13;;;;;;;;;;;;;;;17.69;50.14;99566.44;10326780;28;853;-70
2023/11/23 17:14:09;;;;;;;;;;;;;;;17.70;50.30;99563.72;10325853;28;870;-71
2023/11/23 17:19:05;;;;;;;;;;;;;;;17.69;50.20;99567.28;10326045;28;790;-71
2023/11/23 17:24:01;;;;;;;;;;;;;;;17.71;50.11;99549.63;10326120;28;984;-71
2023/11/23 17:28:57;;;;;;;;;;;;;;;17.72;50.21;99550.47;10325931;28;771;-71
2023/11/23 17:33:53;;;;;;;;;;;;;;;17.69;50.21;99533.00;10325854;28;1211;-70
2023/11/23 17:38:49;;;;;;;;;;;;;;;17.64;50.23;99532.38;10325665;28;1914;-71
2023/11/23 17:43:46;;;;;;;;;;;;;;;17.71;50.06;99512.72;10326527;28;949;-71
2023/11/23 17:48:42;;;;;;;;;;;;;;;17.72;49.95;99501.22;10326278;28;889;-71
2023/11/23 17:53:40;;;;;;;;;;;;;;;17.72;49.91;99501.22;10325400;28;771;-70
2023/11/23 17:58:39;;;;;;;;;;;;;;;17.74;49.94;99493.28;10325287;28;1894;-71
2023/11/23 18:03:35;;;;;;;;;;;;;;;17.75;49.86;99479.16;10326030;28;779;-71
2023/11/23 18:08:31;;;;;;;;;;;;;;;17.75;49.84;99461.53;10326511;28;783;-71
2023/11/23 18:13:26;;;;;;;;;;;;;;;17.75;49.91;99468.59;10325086;28;844;-70
2023/11/23 18:18:22;;;;;;;;;;;;;;;17.77;49.74;99460.63;10325467;28;1914;-71
2023/11/23 18:23:18;;;;;;;;;;;;;;;17.75;49.93;99458.91;10326294;28;857;-70
2023/11/23 18:28:14;;;;;;;;;;;;;;;17.79;50.08;99454.41;10333408;28;861;-70
2023/11/23 18:33:11;;;;;;;;;;;;;;;17.80;49.78;99455.25;10333189;28;1298;-71
2023/11/23 18:38:07;;;;;;;;;;;;;;;17.75;49.99;99435.19;10331921;28;1909;-71
2023/11/23 18:43:04;;;;;;;;;;;;;;;17.79;49.88;99440.31;10332324;28;834;-71
2023/11/23 18:47:59;;;;;;;;;;;;;;;17.80;49.73;99429.72;10331980;28;989;-71
2023/11/23 18:52:56;;;;;;;;;;;;;;;17.76;49.89;99417.56;10331912;28;780;-71
2023/11/23 18:57:54;;;;;;;;;;;;;;;17.78;49.71;99409.59;10330974;28;1898;-71
2023/11/23 19:02:53;;;;;;;;;;;;;;;17.80;49.93;99390.19;10330949;28;924;-70
2023/11/23 19:07:49;;;;;;;;;;;;;;;17.79;49.60;99380.59;10331351;28;786;-70
2023/11/23 19:12:45;;;;;;;;;;;;;;;17.81;49.76;99368.16;10331983;28;839;-70
2023/11/23 19:17:42;;;;;;;;;;;;;;;17.83;49.70;99368.09;10331485;28;1960;-70
2023/11/23 19:22:38;;;;;;;;;;;;;;;17.82;49.65;99366.41;10331366;28;857;-70
2023/11/23 19:27:34;;;;;;;;;;;;;;;17.79;49.82;99353.31;10331202;28;877;-70
2023/11/23 19:32:30;;;;;;;;;;;;;;;17.81;49.73;99339.16;10331238;28;925;-70
2023/11/23 19:37:26;;;;;;;;;;;;;;;17.80;49.52;99333.97;10329269;28;1997;-70
2023/11/23 19:42:22;;;;;;;;;;;;;;;17.81;49.82;99347.06;10330049;28;885;-70
2023/11/23 19:47:18;;;;;;;;;;;;;;;17.83;49.79;99336.47;10329803;28;899;-70
2023/11/23 19:52:16;;;;;;;;;;;;;;;17.85;49.57;99331.97;10329631;28;911;-71
2023/11/23 19:57:12;;;;;;;;;;;;;;;17.83;49.69;99321.47;10330004;28;1966;-71
2023/11/23 20:02:08;;;;;;;;;;;;;;;17.85;49.59;99324.06;10329329;28;872;-70
2023/11/23 20:07:04;;;;;;;;;;;;;;;17.86;49.48;99329.22;10329164;28;810;-70
2023/11/23 20:12:00;;;;;;;;;;;;;;;17.86;49.65;99304.66;10328939;28;935;-71
2023/11/23 20:16:55;;;;;;;;;;;;;;;17.82;49.68;99305.75;10328645;28;1968;-70
2023/11/23 20:21:51;;;;;;;;;;;;;;;17.85;49.70;99306.44;10329103;28;802;-71
2023/11/23 20:26:47;;;;;;;;;;;;;;;17.88;49.43;99318.63;10327823;28;964;-70
2023/11/23 20:31:43;;;;;;;;;;;;;;;17.87;49.40;99309.88;10328120;28;779;-70
2023/11/23 20:36:40;;;;;;;;;;;;;;;17.83;49.71;99295.13;10328120;28;1910;-71
2023/11/23 20:41:35;;;;;;;;;;;;;;;17.80;49.56;99265.44;10328352;28;790;-71
2023/11/23 20:46:32;;;;;;;;;;;;;;;17.80;49.74;99261.00;10327290;28;890;-70
2023/11/23 20:51:28;;;;;;;;;;;;;;;17.83;49.49;99244.19;10328239;28;877;-71
2023/11/23 20:56:27;;;;;;;;;;;;;;;17.82;49.54;99247.75;10327730;28;1948;-71
2023/11/23 21:01:23;;;;;;;;;;;;;;;17.78;49.73;99233.00;10327514;28;916;-71
2023/11/23 21:06:25;;;;;;;;;;;;;;;17.78;49.70;99235.63;10327231;28;798;-71
2023/11/23 21:11:22;;;;;;;;;;;;;;;17.79;49.63;99227.69;10326181;28;1230;-70
2023/11/23 21:16:18;;;;;;;;;;;;;;;17.77;49.76;99220.75;10326274;28;1956;-70
2023/11/23 21:21:14;;;;;;;;;;;;;;;17.74;49.87;99211.22;10326849;28;895;-70
2023/11/23 21:26:10;;;;;;;;;;;;;;;17.77;49.71;99220.75;10326037;28;922;-70
2023/11/23 21:31:06;;;;;;;;;;;;;;;17.74;49.90;99198.88;10327187;28;924;-70
2023/11/23 21:36:04;;;;;;;;;;;;;;;17.73;49.90;99205.06;10326494;28;1920;-71
2023/11/23 21:41:00;;;;;;;;;;;;;;;17.72;49.93;99179.66;10326695;28;879;-70
2023/11/23 21:45:56;;;;;;;;;;;;;;;17.70;49.96;99175.38;10325541;28;826;-71
2023/11/23 21:50:53;;;;;;;;;;;;;;;17.69;50.02;99235.16;10325527;28;944;-70
2023/11/23 21:55:48;;;;;;;;;;;;;;;17.67;49.95;99255.47;10325876;28;1969;-70
2023/11/23 22:00:44;;;;;;;;;;;;;;;17.62;50.20;99246.94;10324238;28;1035;-70
2023/11/23 22:05:46;;;;;;;;;;;;;;;17.59;49.92;99243.63;10325187;28;963;-70
2023/11/23 22:10:42;;;;;;;;;;;;;;;17.55;49.99;99250.81;10324779;28;837;-70
2023/11/23 22:15:38;;;;;;;;;;;;;;;17.51;50.01;99244.00;10324899;28;1963;-70
2023/11/23 22:20:34;;;;;;;;;;;;;;;17.51;50.18;99250.13;10324367;28;1074;-70
2023/11/23 22:25:30;;;;;;;;;;;;;;;17.51;50.03;99238.72;10325421;28;798;-70
2023/11/23 22:30:26;;;;;;;;;;;;;;;17.52;50.04;99243.06;10324102;28;1326;-70
2023/11/23 22:35:22;;;;;;;;;;;;;;;17.52;50.09;99249.19;10324035;28;1894;-70
2023/11/23 22:40:18;;;;;;;;;;;;;;;17.51;49.97;99260.66;10324563;28;822;-70
2023/11/23 22:45:14;;;;;;;;;;;;;;;17.51;49.78;99265.09;10325117;28;766;-70
2023/11/23 22:50:10;;;;;;;;;;;;;;;17.48;49.95;99257.34;10324333;28;1002;-69
2023/11/23 22:55:07;;;;;;;;;;;;;;;17.47;49.95;99269.63;10324214;28;1902;-70
2023/11/23 23:00:07;;;;;;;;;;;;;;;17.48;49.89;99259.97;10324717;28;846;-70
2023/11/23 23:05:03;;;;;;;;;;;;;;;17.48;49.73;99260.81;10324829;28;883;-70
2023/11/23 23:09:59;;;;;;;;;;;;;;;17.47;49.71;99258.25;10324183;28;837;-70
2023/11/23 23:14:55;;;;;;;;;;;;;;;17.47;49.49;99245.91;10331107;28;1961;-70
2023/11/23 23:19:51;;;;;;;;;;;;;;;17.48;49.69;99247.66;10330939;28;861;-70
2023/11/23 23:24:46;;;;;;;;;;;;;;;17.47;49.55;99230.13;10330805;28;838;-70
2023/11/23 23:29:42;;;;;;;;;;;;;;;17.47;49.38;99232.75;10331166;28;885;-70
2023/11/23 23:34:39;;;;;;;;;;;;;;;17.47;49.59;99240.66;10330657;28;1914;-70
2023/11/23 23:39:35;;;;;;;;;;;;;;;17.49;49.52;99245.84;10330225;28;850;-70
2023/11/23 23:44:31;;;;;;;;;;;;;;;17.48;49.51;99234.47;10329404;28;905;-70
2023/11/23 23:49:27;;;;;;;;;;;;;;;17.48;49.69;99229.19;10330445;28;993;-70
2023/11/23 23:54:24;;;;;;;;;;;;;;;17.47;49.60;99226.63;10329712;28;885;-70
2023/11/23 23:59:21;;;;;;;;;;;;;;;17.48;49.69;99244.16;10329456;28;978;-70
